Time;durP1;ratioP1;P1;durP2;ratioP2;P2;SDS_P1;SDS_P2;PMS_P1;PMS_P2;Temp;Humidity;BMP_temperature;BMP_pressure;BME280_temperature;BME280_humidity;BME280_pressure;Samples;Min_cycle;Max_cycle;Signal;HPM_P1;HPM_P2
2023/04/23 00:00:14;;;;;;;7.95;7.35;;;8.60;99.90;;;;;;5075348;28;20460;-83
2023/04/23 00:02:43;;;;;;;8.25;7.55;;;8.50;99.90;;;;;;5092141;28;20111;-83
2023/04/23 00:05:11;;;;;;;9.00;8.30;;;8.50;99.90;;;;;;5091415;28;20038;-83
2023/04/23 00:07:37;;;;;;;8.30;7.60;;;8.70;99.90;;;;;;5092381;28;20043;-83
2023/04/23 00:10:05;;;;;;;8.50;7.90;;;8.50;99.90;;;;;;5075401;28;20075;-83
2023/04/23 00:12:31;;;;;;;8.23;7.63;;;8.50;99.90;;;;;;5092379;28;20538;-83
2023/04/23 00:14:58;;;;;;;8.93;8.23;;;8.60;99.90;;;;;;5075230;28;20036;-83
2023/04/23 00:17:24;;;;;;;10.38;9.48;;;8.60;99.90;;;;;;5092381;28;20043;-83
2023/04/23 00:19:50;;;;;;;10.52;9.63;;;8.50;99.90;;;;;;5075390;28;20036;-82
2023/04/23 00:22:16;;;;;;;10.00;9.20;;;8.40;99.90;;;;;;5093161;28;20503;-83
2023/04/23 00:24:42;;;;;;;9.63;8.82;;;8.50;99.90;;;;;;5075273;28;20036;-83
2023/04/23 00:27:08;;;;;;;9.85;9.05;;;8.50;99.90;;;;;;5093625;28;20133;-83
2023/04/23 00:29:34;;;;;;;10.77;9.88;;;8.50;99.90;;;;;;5075432;28;20484;-83
2023/04/23 00:32:00;;;;;;;10.15;9.25;;;8.30;99.90;;;;;;5092989;28;20472;-82
2023/04/23 00:34:26;;;;;;;10.77;9.88;;;8.40;99.90;;;;;;5093508;28;20093;-82
2023/04/23 00:36:51;;;;;;;9.55;8.85;;;8.40;99.90;;;;;;5091912;28;20036;-82
2023/04/23 00:39:17;;;;;;;10.10;9.30;;;8.20;99.90;;;;;;5091714;28;20048;-82
2023/04/23 00:41:43;;;;;;;9.65;8.85;;;8.40;99.90;;;;;;5091901;28;20044;-83
2023/04/23 00:44:09;;;;;;;9.35;8.65;;;8.30;99.90;;;;;;5075007;28;20072;-82
2023/04/23 00:46:35;;;;;;;9.13;8.43;;;8.30;99.90;;;;;;5093386;28;20040;-82
2023/04/23 00:49:01;;;;;;;9.60;8.80;;;8.20;99.90;;;;;;5093806;28;20072;-83
2023/04/23 00:51:31;;;;;;;8.88;8.18;;;8.40;99.90;;;;;;5092056;28;20484;-83
2023/04/23 00:53:57;;;;;;;9.32;8.63;;;8.20;99.90;;;;;;5091839;28;20515;-83
2023/04/23 00:56:24;;;;;;;9.80;8.90;;;8.20;99.90;;;;;;5092906;28;20511;-83
2023/04/23 00:58:51;;;;;;;8.27;7.63;;;8.20;99.90;;;;;;5093001;28;20076;-82
2023/04/23 01:01:19;;;;;;;8.70;8.07;;;8.40;99.90;;;;;;5091665;28;20052;-83
2023/04/23 01:03:47;;;;;;;8.63;7.93;;;8.20;99.90;;;;;;5091758;28;20491;-82
2023/04/23 01:06:13;;;;;;;9.13;8.43;;;8.30;99.90;;;;;;5126175;28;20373;-83
2023/04/23 01:08:41;;;;;;;8.15;7.55;;;8.40;99.90;;;;;;5091656;28;20040;-82
2023/04/23 01:11:08;;;;;;;9.18;8.40;;;8.20;99.90;;;;;;5093179;28;20047;-83
2023/04/23 01:13:34;;;;;;;8.75;8.05;;;8.30;99.90;;;;;;5091861;28;20052;-82
2023/04/23 01:16:01;;;;;;;9.25;8.55;;;8.40;99.90;;;;;;5093104;28;20051;-83
2023/04/23 01:18:28;;;;;;;8.68;7.97;;;8.10;99.90;;;;;;5078537;28;20043;-83
2023/04/23 01:20:54;;;;;;;8.98;8.27;;;8.20;99.90;;;;;;5095053;28;20048;-83
2023/04/23 01:23:20;;;;;;;8.82;8.13;;;8.10;99.90;;;;;;5095471;28;20047;-83
2023/04/23 01:25:46;;;;;;;9.23;8.50;;;8.20;99.90;;;;;;5095014;28;20123;-83
2023/04/23 01:28:12;;;;;;;9.55;8.85;;;8.00;99.90;;;;;;5096612;28;20432;-83
2023/04/23 01:30:41;;;;;;;9.57;8.88;;;8.20;99.90;;;;;;5094988;28;20040;-83
2023/04/23 01:33:08;;;;;;;9.30;8.60;;;8.00;99.90;;;;;;5078047;28;20510;-83
2023/04/23 01:35:34;;;;;;;9.40;8.70;;;8.20;99.90;;;;;;5077987;28;20048;-83
2023/04/23 01:38:02;;;;;;;9.85;9.15;;;8.00;99.90;;;;;;5094807;28;20032;-83
2023/04/23 01:40:28;;;;;;;8.52;7.93;;;8.10;99.90;;;;;;5077652;28;20044;-83
2023/04/23 01:42:54;;;;;;;10.52;9.70;;;8.20;99.90;;;;;;5094729;28;20048;-83
2023/04/23 01:45:20;;;;;;;10.40;9.60;;;8.20;99.90;;;;;;5094668;28;20117;-83
2023/04/23 01:47:46;;;;;;;9.75;9.05;;;8.10;99.90;;;;;;5095033;28;20158;-83
2023/04/23 01:50:12;;;;;;;11.32;10.32;;;8.00;99.90;;;;;;5077689;28;20050;-83
2023/04/23 01:52:38;;;;;;;11.90;10.95;;;8.00;99.90;;;;;;5094599;28;20040;-83
2023/04/23 01:55:04;;;;;;;11.88;10.98;;;8.00;99.90;;;;;;5094883;28;20107;-83
2023/04/23 01:57:29;;;;;;;10.13;9.32;;;8.10;99.90;;;;;;5094797;28;20040;-83
2023/04/23 02:00:07;;;;;;;12.07;11.07;;;8.10;99.90;;;;;;5095982;28;20058;-83
2023/04/23 02:02:33;;;;;;;11.60;10.70;;;8.20;99.90;;;;;;5094578;28;20040;-83
2023/04/23 02:05:02;;;;;;;13.10;11.85;;;7.90;99.90;;;;;;5077450;28;20032;-83
2023/04/23 02:07:28;;;;;;;13.05;12.02;;;7.90;99.90;;;;;;5095450;28;20472;-83
2023/04/23 02:09:53;;;;;;;12.38;11.38;;;8.10;99.90;;;;;;5077308;28;20042;-83
2023/04/23 02:12:19;;;;;;;14.00;12.75;;;8.00;99.90;;;;;;5094493;28;20040;-83
2023/04/23 02:14:44;;;;;;;13.38;12.27;;;7.90;99.90;;;;;;5094099;28;20052;-83
2023/04/23 02:17:11;;;;;;;12.50;11.60;;;8.00;99.90;;;;;;5077162;28;20040;-83
2023/04/23 02:19:36;;;;;;;14.90;13.57;;;7.90;99.90;;;;;;5094319;28;20046;-83
2023/04/23 02:22:02;;;;;;;14.82;13.52;;;7.80;99.90;;;;;;5093942;28;20594;-83
2023/04/23 02:24:28;;;;;;;15.13;13.90;;;7.80;99.90;;;;;;5095376;28;20032;-83
2023/04/23 02:26:53;;;;;;;15.57;14.27;;;7.80;99.90;;;;;;5093412;28;20182;-83
2023/04/23 02:29:19;;;;;;;15.27;13.98;;;8.00;99.90;;;;;;5093874;28;20043;-83
2023/04/23 02:31:45;;;;;;;15.75;14.45;;;7.80;99.90;;;;;;5093807;28;20138;-83
2023/04/23 02:34:11;;;;;;;17.08;15.63;;;7.90;99.90;;;;;;5076895;28;20123;-83
2023/04/23 02:36:37;;;;;;;16.90;15.40;;;8.00;99.90;;;;;;5095259;28;20356;-83
2023/04/23 02:39:02;;;;;;;17.02;15.52;;;7.90;99.90;;;;;;5093666;28;20070;-83
2023/04/23 02:41:28;;;;;;;15.68;14.35;;;7.80;99.90;;;;;;5093530;28;20040;-83
2023/04/23 02:43:54;;;;;;;16.17;14.77;;;7.90;99.90;;;;;;5076739;28;20039;-83
2023/04/23 02:46:19;;;;;;;16.35;14.88;;;7.80;99.90;;;;;;5093541;28;20046;-83
2023/04/23 02:48:45;;;;;;;15.38;14.10;;;7.80;99.90;;;;;;5076623;28;20373;-83
2023/04/23 02:51:12;;;;;;;14.90;13.70;;;7.70;99.90;;;;;;5093802;28;20044;-83
2023/04/23 02:53:38;;;;;;;14.82;13.68;;;7.60;99.90;;;;;;5094910;28;20070;-83
2023/04/23 02:56:03;;;;;;;15.35;14.05;;;7.70;99.90;;;;;;5093591;28;20040;-83
2023/04/23 02:58:29;;;;;;;16.92;15.52;;;7.70;99.90;;;;;;5094814;28;20365;-83
2023/04/23 03:00:55;;;;;;;15.88;14.57;;;7.80;99.90;;;;;;5093438;28;20058;-83
2023/04/23 03:03:25;;;;;;;16.35;15.10;;;7.70;99.90;;;;;;5076262;28;20521;-83
2023/04/23 03:05:50;;;;;;;15.83;14.53;;;7.90;99.90;;;;;;5093554;28;20047;-83
2023/04/23 03:08:16;;;;;;;16.45;15.15;;;7.90;99.90;;;;;;5076082;28;20031;-82
2023/04/23 03:10:42;;;;;;;15.75;14.45;;;7.70;99.90;;;;;;5093122;28;20036;-83
2023/04/23 03:13:08;;;;;;;15.52;14.32;;;7.80;99.90;;;;;;5093088;28;20136;-83
2023/04/23 03:15:33;;;;;;;14.32;13.25;;;7.80;99.90;;;;;;5076446;28;20106;-83
2023/04/23 03:18:00;;;;;;;16.98;15.40;;;7.80;99.90;;;;;;5093342;28;20043;-83
2023/04/23 03:20:26;;;;;;;14.20;13.10;;;7.70;99.90;;;;;;5076195;28;20067;-83
2023/04/23 03:22:52;;;;;;;15.48;14.07;;;7.70;99.90;;;;;;5092982;28;20490;-83
2023/04/23 03:25:19;;;;;;;14.65;13.25;;;7.70;99.90;;;;;;5076092;28;20032;-83
2023/04/23 03:27:44;;;;;;;15.23;13.65;;;7.90;99.90;;;;;;5092819;28;20475;-83
2023/04/23 03:30:11;;;;;;;30.60;14.48;;;7.70;99.90;;;;;;5093907;28;20036;-83
2023/04/23 03:32:37;;;;;;;49.83;16.35;;;7.80;99.90;;;;;;5092728;28;20035;-83
2023/04/23 03:35:03;;;;;;;26.85;14.43;;;7.90;99.90;;;;;;5092934;28;20461;-83
2023/04/23 03:37:29;;;;;;;20.45;12.80;;;7.90;99.90;;;;;;5092708;28;20032;-83
2023/04/23 03:39:54;;;;;;;16.00;12.52;;;7.70;99.90;;;;;;5092284;28;20059;-82
2023/04/23 03:42:24;;;;;;;30.23;13.65;;;7.70;99.90;;;;;;5092851;28;20090;-82
2023/04/23 03:44:49;;;;;;;56.75;16.35;;;7.80;99.90;;;;;;5075756;28;20131;-82
2023/04/23 03:47:15;;;;;;;17.55;13.80;;;7.70;99.90;;;;;;5075666;28;20168;-81
2023/04/23 03:49:46;;;;;;;84.72;18.67;;;7.80;99.90;;;;;;5094025;28;20028;-82
2023/04/23 03:52:18;;;;;;;58.92;17.85;;;7.90;99.90;;;;;;5092816;28;20461;-82
2023/04/23 03:54:59;;;;;;;61.13;19.27;;;7.70;99.90;;;;;;5092926;28;20109;-82
2023/04/23 03:57:25;;;;;;;63.00;17.20;;;7.70;99.90;;;;;;5075685;28;20040;-83
2023/04/23 03:59:51;;;;;;;27.58;13.85;;;7.40;99.90;;;;;;5075387;28;20131;-83
2023/04/23 04:02:17;;;;;;;29.95;14.23;;;7.60;99.90;;;;;;5093806;28;20043;-83
2023/04/23 04:04:44;;;;;;;23.88;12.00;;;7.40;99.90;;;;;;5092557;28;20044;-83
2023/04/23 04:07:11;;;;;;;22.30;12.13;;;7.40;99.90;;;;;;5092537;28;20079;-82
2023/04/23 04:09:37;;;;;;;15.68;12.30;;;7.50;99.90;;;;;;5093712;28;20036;-83
2023/04/23 04:12:04;;;;;;;15.82;14.30;;;7.80;99.90;;;;;;5092079;28;20507;-83
2023/04/23 04:14:30;;;;;;;17.55;16.05;;;7.70;99.90;;;;;;5092471;28;20072;-83
2023/04/23 04:16:56;;;;;;;16.85;15.55;;;7.60;99.90;;;;;;5075212;28;20036;-83
2023/04/23 04:19:22;;;;;;;16.98;15.52;;;7.60;99.90;;;;;;5092438;28;20074;-83
2023/04/23 04:21:48;;;;;;;16.42;15.07;;;7.70;99.90;;;;;;5093445;28;20115;-83
2023/04/23 04:24:13;;;;;;;16.05;14.85;;;7.50;99.90;;;;;;5075470;28;20040;-82
2023/04/23 04:26:40;;;;;;;27.02;16.88;;;7.70;99.90;;;;;;5092005;28;20079;-82
2023/04/23 04:29:05;;;;;;;30.80;16.77;;;7.80;99.90;;;;;;5091928;28;20046;-82
2023/04/23 04:31:31;;;;;;;19.63;17.27;;;7.70;99.90;;;;;;5092254;28;20044;-82
2023/04/23 04:33:57;;;;;;;16.80;15.38;;;7.70;99.90;;;;;;5091992;28;20040;-82
2023/04/23 04:36:26;;;;;;;35.47;18.38;;;7.70;99.90;;;;;;5093435;28;20035;-83
2023/04/23 04:38:54;;;;;;;34.55;17.48;;;7.70;99.90;;;;;;5074717;28;20057;-82
2023/04/23 04:41:21;;;;;;;30.30;17.77;;;7.90;99.90;;;;;;5075135;28;20043;-82
2023/04/23 04:43:47;;;;;;;33.22;17.40;;;7.80;99.90;;;;;;5092216;28;20039;-83
2023/04/23 04:46:14;;;;;;;22.92;16.23;;;7.60;99.90;;;;;;5092062;28;20047;-82
2023/04/23 04:48:40;;;;;;;21.98;14.23;;;7.80;99.90;;;;;;5075023;28;20162;-82
2023/04/23 04:51:06;;;;;;;15.13;13.07;;;7.70;99.90;;;;;;5095394;28;20040;-82
2023/04/23 04:53:32;;;;;;;89.95;16.70;;;7.90;99.90;;;;;;5095976;28;20118;-82
2023/04/23 04:55:57;;;;;;;69.57;13.45;;;8.00;99.90;;;;;;5097239;28;20182;-82
2023/04/23 04:58:23;;;;;;;41.92;13.43;;;7.80;99.90;;;;;;5078906;28;20491;-82
2023/04/23 05:00:50;;;;;;;26.30;12.38;;;8.00;99.90;;;;;;5078603;28;20473;-82
2023/04/23 05:03:17;;;;;;;34.55;13.32;;;7.80;99.90;;;;;;5095864;28;20046;-83
2023/04/23 05:05:44;;;;;;;34.35;13.65;;;7.80;99.90;;;;;;5095742;28;20040;-82
2023/04/23 05:08:11;;;;;;;38.00;15.55;;;7.90;99.90;;;;;;5096559;28;20417;-82
2023/04/23 05:10:37;;;;;;;55.25;16.75;;;7.80;99.90;;;;;;5095551;28;20052;-82
2023/04/23 05:13:03;;;;;;;29.13;14.85;;;8.00;99.90;;;;;;5095574;28;20028;-83
2023/04/23 05:15:28;;;;;;;19.05;13.45;;;8.10;99.90;;;;;;5095586;28;20532;-83
2023/04/23 05:17:54;;;;;;;15.38;14.10;;;8.00;99.90;;;;;;5096512;28;20032;-82
2023/04/23 05:20:21;;;;;;;16.95;13.10;;;8.00;99.90;;;;;;5096770;28;20090;-82
2023/04/23 05:22:46;;;;;;;15.60;14.07;;;8.20;99.90;;;;;;5095498;28;20369;-82
2023/04/23 05:25:13;;;;;;;14.82;13.43;;;8.10;99.90;;;;;;5078580;28;20036;-82
2023/04/23 05:27:39;;;;;;;16.23;14.77;;;8.40;99.90;;;;;;5078338;28;20080;-82
2023/04/23 05:30:08;;;;;;;14.48;13.45;;;8.40;99.90;;;;;;5095092;28;20056;-82
2023/04/23 05:32:34;;;;;;;15.07;13.98;;;8.40;99.90;;;;;;5095258;28;20048;-82
2023/04/23 05:35:01;;;;;;;14.18;13.18;;;8.30;99.90;;;;;;5095249;28;20117;-82
2023/04/23 05:37:27;;;;;;;15.15;14.05;;;8.30;99.90;;;;;;5095027;28;20598;-82
2023/04/23 05:39:53;;;;;;;17.40;16.00;;;8.30;99.90;;;;;;5094649;28;20492;-82
2023/04/23 05:42:19;;;;;;;15.45;14.35;;;8.50;99.90;;;;;;5096021;28;20044;-82
2023/04/23 05:44:44;;;;;;;16.10;14.90;;;8.40;99.90;;;;;;5077810;28;20051;-82
2023/04/23 05:47:12;;;;;;;15.40;14.30;;;8.50;99.90;;;;;;5094787;28;20040;-82
2023/04/23 05:49:38;;;;;;;16.70;15.40;;;8.60;99.90;;;;;;5078157;28;20042;-82
2023/04/23 05:52:04;;;;;;;16.58;15.38;;;8.60;99.90;;;;;;5095020;28;20391;-83
2023/04/23 05:54:30;;;;;;;16.33;15.13;;;8.70;99.90;;;;;;5077793;28;20490;-82
2023/04/23 05:56:55;;;;;;;16.50;15.25;;;8.70;99.90;;;;;;5077723;28;20130;-83
2023/04/23 05:59:21;;;;;;;16.50;15.20;;;8.60;99.90;;;;;;5077583;28;20042;-83
2023/04/23 06:01:47;;;;;;;16.77;15.52;;;8.80;99.90;;;;;;5111162;28;20036;-82
2023/04/23 06:04:14;;;;;;;16.73;15.43;;;8.80;99.90;;;;;;5077953;28;20119;-83
2023/04/23 06:06:41;;;;;;;17.23;15.88;;;8.90;99.90;;;;;;5094580;28;20040;-82
2023/04/23 06:09:07;;;;;;;16.75;15.45;;;8.70;99.90;;;;;;5095853;28;20036;-82
2023/04/23 06:11:34;;;;;;;17.17;15.88;;;8.80;99.90;;;;;;5094041;28;20036;-82
2023/04/23 06:14:01;;;;;;;17.45;16.05;;;8.60;99.90;;;;;;5094119;28;20123;-82
2023/04/23 06:16:26;;;;;;;17.65;16.27;;;8.60;99.90;;;;;;5094358;28;20391;-82
2023/04/23 06:18:53;;;;;;;16.67;15.38;;;8.80;99.90;;;;;;5095659;28;20119;-82
2023/04/23 06:21:19;;;;;;;17.40;16.10;;;8.90;99.90;;;;;;5076994;28;20511;-82
2023/04/23 06:23:45;;;;;;;17.63;16.33;;;8.80;99.90;;;;;;5094246;28;20602;-82
2023/04/23 06:26:10;;;;;;;17.95;16.60;;;8.90;99.90;;;;;;5093890;28;20032;-82
2023/04/23 06:28:36;;;;;;;18.23;16.73;;;9.00;99.90;;;;;;5077059;28;20043;-81
2023/04/23 06:31:02;;;;;;;18.20;16.75;;;8.90;99.90;;;;;;5094158;28;20088;-82
2023/04/23 06:33:27;;;;;;;17.65;16.25;;;8.90;99.90;;;;;;5093790;28;20040;-82
2023/04/23 06:35:53;;;;;;;19.42;17.83;;;9.20;99.90;;;;;;5095260;28;20036;-82
2023/04/23 06:38:21;;;;;;;22.63;20.67;;;9.20;99.90;;;;;;5076868;28;20113;-81
2023/04/23 06:40:47;;;;;;;22.52;20.58;;;9.10;99.90;;;;;;5095222;28;20097;-81
2023/04/23 06:43:13;;;;;;;23.52;21.52;;;9.20;99.90;;;;;;5076754;28;20040;-82
2023/04/23 06:45:39;;;;;;;20.90;19.20;;;9.40;99.90;;;;;;5093950;28;20388;-81
2023/04/23 06:48:05;;;;;;;18.50;17.10;;;9.50;99.90;;;;;;5095028;28;20032;-81
2023/04/23 06:50:31;;;;;;;19.85;18.25;;;9.60;99.90;;;;;;5093744;28;20139;-81
2023/04/23 06:52:56;;;;;;;20.20;18.60;;;9.50;99.90;;;;;;5093406;28;20127;-81
2023/04/23 06:55:25;;;;;;;19.73;18.10;;;9.70;99.90;;;;;;5094058;28;20098;-81
2023/04/23 06:57:54;;;;;;;23.42;21.50;;;9.60;99.90;;;;;;5094847;28;20082;-81
2023/04/23 07:00:22;;;;;;;28.77;26.37;;;9.70;99.90;;;;;;5094469;28;20492;-81
2023/04/23 07:02:48;;;;;;;28.27;25.88;;;9.70;99.90;;;;;;5093151;28;20040;-81
2023/04/23 07:05:14;;;;;;;25.42;23.27;;;9.90;99.90;;;;;;5076734;28;20511;-81
2023/04/23 07:07:41;;;;;;;24.90;22.90;;;10.00;99.90;;;;;;5076561;28;20603;-81
2023/04/23 07:10:08;;;;;;;22.77;20.90;;;9.90;99.90;;;;;;5094666;28;20036;-81
2023/04/23 07:12:35;;;;;;;21.08;19.48;;;10.10;99.90;;;;;;5094570;28;20048;-81
2023/04/23 07:15:01;;;;;;;21.10;19.50;;;10.20;99.90;;;;;;5094266;28;20040;-81
2023/04/23 07:17:27;;;;;;;21.38;19.73;;;10.40;99.90;;;;;;5094513;28;20024;-73
2023/04/23 07:19:52;;;;;;;21.77;20.17;;;10.30;99.90;;;;;;5093249;28;20372;-73
2023/04/23 07:22:18;;;;;;;19.75;18.15;;;10.50;99.90;;;;;;5092830;28;20051;-73
2023/04/23 07:24:43;;;;;;;20.92;19.40;;;10.50;99.90;;;;;;5076230;28;20384;-80
2023/04/23 07:27:09;;;;;;;20.40;18.80;;;10.60;99.90;;;;;;5093048;28;20032;-80
2023/04/23 07:29:35;;;;;;;20.85;19.25;;;10.60;99.90;;;;;;5094101;28;20047;-85
2023/04/23 07:32:00;;;;;;;19.42;17.90;;;10.70;99.90;;;;;;5109942;28;20040;-83
2023/04/23 07:34:26;;;;;;;19.83;18.35;;;10.90;99.90;;;;;;5094301;28;20071;-80
2023/04/23 07:36:52;;;;;;;20.15;18.73;;;10.90;99.90;;;;;;5092670;28;20040;-80
2023/04/23 07:39:18;;;;;;;19.88;18.38;;;11.00;99.90;;;;;;5092612;28;20138;-80
2023/04/23 07:41:43;;;;;;;19.15;17.75;;;11.10;99.90;;;;;;5075530;28;20051;-79
2023/04/23 07:44:09;;;;;;;18.67;17.27;;;11.10;99.90;;;;;;5092557;28;20047;-81
2023/04/23 07:46:35;;;;;;;19.20;17.80;;;11.10;99.90;;;;;;5109729;28;20048;-82
2023/04/23 07:49:00;;;;;;;19.50;18.00;;;11.30;99.90;;;;;;5075913;28;20469;-81
2023/04/23 07:51:26;;;;;;;18.08;16.77;;;11.30;99.90;;;;;;5109654;28;20043;-82
2023/04/23 07:53:53;;;;;;;18.58;17.23;;;11.40;99.90;;;;;;5093901;28;20540;-78
2023/04/23 07:56:21;;;;;;;16.17;14.98;;;11.50;99.90;;;;;;5092668;28;20044;-78
2023/04/23 07:58:46;;;;;;;16.40;15.23;;;11.50;99.90;;;;;;5093801;28;20055;-78
2023/04/23 08:01:12;;;;;;;15.75;14.65;;;11.60;99.90;;;;;;5092359;28;20039;-76
2023/04/23 08:03:38;;;;;;;16.98;15.77;;;11.60;99.90;;;;;;5092633;28;20491;-77
2023/04/23 08:06:04;;;;;;;15.10;14.10;;;11.70;99.90;;;;;;5093791;28;20111;-78
2023/04/23 08:08:29;;;;;;;16.13;15.02;;;11.80;99.90;;;;;;5092295;28;20498;-78
2023/04/23 08:10:55;;;;;;;16.00;14.90;;;11.80;99.90;;;;;;5092569;28;20105;-80
2023/04/23 08:13:21;;;;;;;14.30;13.40;;;11.80;99.90;;;;;;5075401;28;20458;-79
2023/04/23 08:15:47;;;;;;;15.52;14.52;;;12.00;99.90;;;;;;5075404;28;20109;-79
2023/04/23 08:18:14;;;;;;;15.43;14.40;;;12.10;99.90;;;;;;5093875;28;20036;-82
2023/04/23 08:20:40;;;;;;;15.65;14.55;;;12.10;99.90;;;;;;5093711;28;20083;-83
2023/04/23 08:23:06;;;;;;;13.45;12.55;;;12.30;99.90;;;;;;5092160;28;20126;-83
2023/04/23 08:25:31;;;;;;;13.15;12.25;;;12.20;99.90;;;;;;5076362;28;20115;-84
2023/04/23 08:27:57;;;;;;;13.55;12.65;;;12.30;99.90;;;;;;5096200;28;20048;-85
2023/04/23 08:30:23;;;;;;;13.80;12.80;;;12.30;99.90;;;;;;5096246;28;20043;-82
2023/04/23 08:32:52;;;;;;;13.57;12.57;;;12.30;99.90;;;;;;5096276;28;20341;-83
2023/04/23 08:35:18;;;;;;;13.02;12.13;;;12.30;99.90;;;;;;5097663;28;20085;-79
2023/04/23 08:37:45;;;;;;;12.20;11.40;;;12.30;99.90;;;;;;5097639;28;20063;-74
2023/04/23 08:40:12;;;;;;;12.90;12.05;;;12.40;99.90;;;;;;5097037;28;20560;-75
2023/04/23 08:42:50;;;;;;;12.15;11.35;;;12.40;99.90;;;;;;5097279;28;20079;-81
2023/04/23 08:45:16;;;;;;;10.82;10.13;;;12.70;99.90;;;;;;5097694;28;20396;-81
2023/04/23 08:47:42;;;;;;;11.23;10.43;;;12.60;99.90;;;;;;5097513;28;20431;-82
2023/04/23 08:50:13;;;;;;;12.38;11.48;;;12.70;99.90;;;;;;5113020;28;20036;-76
2023/04/23 08:52:44;;;;;;;12.43;11.63;;;12.80;99.90;;;;;;5098206;28;20376;-76
2023/04/23 08:55:09;;;;;;;12.40;11.50;;;12.80;99.90;;;;;;5097462;28;20104;-76
2023/04/23 08:57:38;;;;;;;11.85;11.00;;;12.80;99.90;;;;;;5097822;28;20119;-76
2023/04/23 09:00:06;;;;;;;10.57;9.87;;;12.90;99.90;;;;;;5097380;28;20040;-76
2023/04/23 09:02:34;;;;;;;9.85;9.18;;;12.90;99.90;;;;;;5095977;28;20074;-76
2023/04/23 09:05:03;;;;;;;10.88;10.18;;;12.90;99.90;;;;;;5095924;28;20050;-76
2023/04/23 09:07:29;;;;;;;9.30;8.68;;;13.00;99.90;;;;;;5095778;28;20036;-76
2023/04/23 09:09:55;;;;;;;10.32;9.63;;;13.10;99.90;;;;;;5095456;28;20391;-76
2023/04/23 09:12:21;;;;;;;11.27;10.55;;;13.10;99.90;;;;;;5095652;28;20073;-76
2023/04/23 09:14:48;;;;;;;9.45;8.85;;;13.30;99.90;;;;;;5095323;28;20040;-76
2023/04/23 09:17:13;;;;;;;8.85;8.25;;;13.40;99.90;;;;;;5095464;28;20500;-76
2023/04/23 09:19:40;;;;;;;9.63;9.02;;;13.40;99.90;;;;;;5078299;28;20051;-76
2023/04/23 09:22:06;;;;;;;9.45;8.85;;;13.40;99.90;;;;;;5096616;28;20089;-76
2023/04/23 09:24:33;;;;;;;9.15;8.55;;;13.50;99.90;;;;;;5095356;28;20040;-75
2023/04/23 09:26:59;;;;;;;8.20;7.60;;;13.60;99.90;;;;;;5096887;28;20131;-76
2023/04/23 09:29:25;;;;;;;7.28;6.78;;;13.60;99.90;;;;;;5097361;28;20655;-73
2023/04/23 09:32:01;;;;;;;8.00;7.45;;;13.70;99.90;;;;;;5096602;28;20123;-76
2023/04/23 09:34:26;;;;;;;7.72;7.22;;;13.70;99.90;;;;;;5096644;28;20047;-76
2023/04/23 09:36:52;;;;;;;7.70;7.20;;;13.80;99.90;;;;;;5096460;28;20040;-78
2023/04/23 09:39:21;;;;;;;7.78;7.28;;;14.10;99.90;;;;;;5094825;28;20373;-75
2023/04/23 09:41:47;;;;;;;6.90;6.40;;;14.20;99.90;;;;;;5096307;28;20104;-79
2023/04/23 09:44:25;;;;;;;7.15;6.65;;;14.30;99.90;;;;;;5095868;28;20115;-74
2023/04/23 09:46:50;;;;;;;6.80;6.30;;;14.40;99.90;;;;;;5094954;28;20507;-74
2023/04/23 09:49:16;;;;;;;5.53;5.10;;;14.50;99.90;;;;;;5096167;28;20039;-74
2023/04/23 09:51:47;;;;;;;6.10;5.60;;;14.60;99.90;;;;;;5096072;28;20112;-74
2023/04/23 09:54:25;;;;;;;6.18;5.78;;;14.70;99.90;;;;;;5094857;28;20035;-74
2023/04/23 09:56:55;;;;;;;6.10;5.70;;;14.70;99.90;;;;;;5077632;28;20039;-74
2023/04/23 09:59:26;;;;;;;4.90;4.60;;;14.80;99.90;;;;;;5094826;28;20036;-74
2023/04/23 10:01:53;;;;;;;5.03;4.63;;;14.90;99.90;;;;;;5094411;28;20484;-74
2023/04/23 10:04:26;;;;;;;5.40;5.00;;;15.10;99.90;;;;;;5095849;28;20036;-73
2023/04/23 10:07:00;;;;;;;5.00;4.60;;;15.20;99.90;;;;;;5095554;28;20119;-73
2023/04/23 10:09:27;;;;;;;3.85;3.55;;;15.30;99.90;;;;;;5077368;28;20130;-74
2023/04/23 10:11:55;;;;;;;3.80;3.50;;;15.00;99.90;;;;;;5095693;28;20043;-74
2023/04/23 10:14:22;;;;;;;4.72;4.32;;;14.90;99.90;;;;;;5094132;28;20123;-74
2023/04/23 10:16:50;;;;;;;4.40;4.00;;;14.80;99.90;;;;;;5094366;28;20048;-74
2023/04/23 10:19:21;;;;;;;4.82;4.43;;;14.80;99.90;;;;;;5094053;28;20101;-74
2023/04/23 10:21:51;;;;;;;3.75;3.45;;;14.60;99.90;;;;;;5077082;28;20040;-73
2023/04/23 10:24:19;;;;;;;3.75;3.42;;;14.60;99.90;;;;;;5095763;28;20036;-73
2023/04/23 10:26:46;;;;;;;4.07;3.78;;;14.60;99.90;;;;;;5077034;28;20032;-74
2023/04/23 10:29:17;;;;;;;3.80;3.50;;;14.70;99.90;;;;;;5094049;28;20072;-73
2023/04/23 10:31:45;;;;;;;3.30;3.00;;;14.70;99.90;;;;;;5095965;28;20110;-74
2023/04/23 10:34:11;;;;;;;3.17;2.88;;;14.90;99.90;;;;;;5095313;28;20044;-74
2023/04/23 10:36:37;;;;;;;2.97;2.50;;;15.10;99.90;;;;;;5095201;28;20407;-75
2023/04/23 10:39:07;;;;;;;2.88;2.20;;;15.30;99.90;;;;;;5094710;28;20052;-75
2023/04/23 10:41:41;;;;;;;1.83;1.70;;;15.60;99.90;;;;;;5127846;27;20500;-77
2023/04/23 10:44:12;;;;;;;2.30;2.10;;;15.80;99.90;;;;;;5093539;28;20054;-76
2023/04/23 10:46:37;;;;;;;1.60;1.50;;;15.90;99.90;;;;;;5076700;28;20036;-75
2023/04/23 10:49:13;;;;;;;2.20;1.92;;;16.10;99.90;;;;;;5094399;28;20441;-76
2023/04/23 10:51:41;;;;;;;1.83;1.63;;;16.10;99.90;;;;;;5094706;28;20479;-75
2023/04/23 10:54:09;;;;;;;2.53;1.92;;;16.20;99.90;;;;;;5076406;28;20092;-75
2023/04/23 10:56:37;;;;;;;1.77;1.67;;;16.20;99.90;;;;;;5093727;28;20047;-75
2023/04/23 10:59:25;;;;;;;1.77;1.30;;;16.10;99.90;;;;;;5093294;28;20519;-76
2023/04/23 11:01:51;;;;;;;1.60;1.35;;;15.90;99.90;;;;;;5092772;28;20044;-77
2023/04/23 11:04:25;;;;;;;1.63;1.40;;;15.90;99.90;;;;;;5093416;28;20040;-80
2023/04/23 11:06:53;;;;;;;1.67;1.42;;;15.80;99.90;;;;;;5093373;28;20151;-78
2023/04/23 11:09:37;;;;;;;1.85;1.10;;;15.80;99.90;;;;;;5092983;28;20040;-77
2023/04/23 11:12:06;;;;;;;1.50;1.30;;;16.00;99.90;;;;;;5093304;28;20509;-77
2023/04/23 11:14:53;;;;;;;1.90;1.40;;;16.10;99.90;;;;;;5094426;28;20127;-77
2023/04/23 11:17:31;;;;;;;1.90;1.20;;;16.20;99.90;;;;;;5110004;28;20071;-78
2023/04/23 11:20:02;;;;;;;1.80;1.10;;;16.20;99.90;;;;;;5094495;28;20127;-78
2023/04/23 11:22:51;;;;;;;2.22;1.48;;;16.30;99.90;;;;;;5075939;28;20036;-82
2023/04/23 11:25:33;;;;;;;1.23;1.00;;;16.30;99.90;;;;;;5076651;28;20040;-83
2023/04/23 11:28:22;;;;;;;1.67;1.27;;;16.10;99.90;;;;;;5092979;28;20076;-82
2023/04/23 11:31:06;;;;;;;1.63;0.80;;;16.20;99.90;;;;;;5093339;28;20093;-83
2023/04/23 11:33:32;;;;;;;0.95;0.82;;;16.20;99.90;;;;;;5076825;28;20044;-83
2023/04/23 11:36:02;;;;;;;1.20;0.90;;;16.30;99.90;;;;;;5092923;28;20050;-82
2023/04/23 11:38:39;;;;;;;1.90;1.00;;;16.50;99.90;;;;;;5093487;28;20039;-82
2023/04/23 11:41:11;;;;;;;0.70;0.70;;;16.70;99.90;;;;;;5076224;28;20048;-81
2023/04/23 11:43:42;;;;;;;1.23;0.80;;;16.90;99.90;;;;;;5092744;28;20036;-82
2023/04/23 11:46:47;;;;;;;1.20;0.88;;;17.00;99.90;;;;;;5094637;28;20036;-82
2023/04/23 11:49:18;;;;;;;0.95;0.70;;;17.20;99.90;;;;;;5092840;28;20093;-82
2023/04/23 11:51:44;;;;;;;0.68;0.65;;;17.00;99.90;;;;;;5059331;28;20078;-83
2023/04/23 11:54:12;;;;;;;2.28;0.70;;;16.90;99.90;;;;;;5075425;28;20048;-81
2023/04/23 11:56:38;;;;;;;0.82;0.80;;;17.10;99.90;;;;;;5092550;28;20040;-82
2023/04/23 11:59:05;;;;;;;1.25;0.70;;;17.20;99.90;;;;;;5075230;28;20119;-82
2023/04/23 12:01:50;;;;;;;0.93;0.75;;;17.30;99.90;;;;;;5092771;28;20071;-81
2023/04/23 12:04:19;;;;;;;1.70;0.70;;;17.00;99.90;;;;;;5093672;28;20127;-81
2023/04/23 12:06:45;;;;;;;1.38;0.80;;;16.90;99.90;;;;;;5075271;28;20043;-84
2023/04/23 12:09:13;;;;;;;1.17;0.80;;;16.90;99.90;;;;;;5093569;28;20042;-81
2023/04/23 12:11:43;;;;;;;1.95;0.80;;;17.00;99.90;;;;;;5126314;27;20055;-80
2023/04/23 12:14:10;;;;;;;0.70;0.70;;;17.20;99.90;;;;;;5094068;28;20119;-81
2023/04/23 12:16:44;;;;;;;1.33;0.73;;;17.30;99.90;;;;;;5092404;28;20072;-81
2023/04/23 12:19:27;;;;;;;1.15;0.73;;;17.40;99.90;;;;;;5093505;28;20422;-80
2023/04/23 12:21:59;;;;;;;0.70;0.70;;;17.50;99.90;;;;;;5093663;28;20046;-79
2023/04/23 12:24:30;;;;;;;1.05;0.60;;;17.70;99.90;;;;;;5093588;28;20142;-81
2023/04/23 12:27:01;;;;;;;1.35;0.70;;;17.80;99.90;;;;;;5093523;28;20044;-81
2023/04/23 12:29:29;;;;;;;1.00;0.70;;;17.70;98.90;;;;;;5094026;28;20111;-79
2023/04/23 12:31:58;;;;;;;1.60;0.80;;;17.60;97.90;;;;;;5093432;28;20051;-80
2023/04/23 12:34:23;;;;;;;0.75;0.60;;;17.50;99.80;;;;;;5091894;28;20487;-80
2023/04/23 12:36:51;;;;;;;0.68;0.60;;;17.70;99.90;;;;;;5093477;28;20122;-81
2023/04/23 12:39:28;;;;;;;0.80;0.68;;;17.90;99.90;;;;;;5091686;28;20519;-81
2023/04/23 12:42:03;;;;;;;1.20;0.80;;;18.10;98.90;;;;;;5093322;28;20051;-82